createdAt,value
2019-05-15T00:00:35.788Z,97.90
2019-05-15T00:03:04.589Z,97.40
2019-05-15T00:05:33.131Z,97.10
2019-05-15T00:08:01.746Z,98.00
2019-05-15T00:10:30.406Z,97.90
2019-05-15T00:12:58.884Z,97.80
2019-05-15T00:15:27.942Z,98.30
2019-05-15T00:17:57.884Z,98.50
2019-05-15T00:20:26.473Z,98.00
2019-05-15T00:22:55.032Z,98.60
2019-05-15T00:25:23.577Z,98.40
2019-05-15T00:27:52.147Z,98.80
2019-05-15T00:30:21.665Z,98.30
2019-05-15T00:32:51.764Z,98.10
2019-05-15T00:35:20.529Z,98.30
2019-05-15T00:37:49.414Z,98.60
2019-05-15T00:40:18.498Z,99.00
2019-05-15T00:42:48.881Z,99.30
2019-05-15T00:45:18.512Z,99.00
2019-05-15T00:47:48.748Z,99.30
2019-05-15T00:50:19.406Z,99.30
2019-05-15T00:52:48.496Z,99.80
2019-05-15T00:55:19.143Z,99.90
2019-05-15T00:57:49.392Z,99.90
2019-05-15T01:00:21.023Z,99.90
2019-05-15T01:02:49.571Z,99.90
2019-05-15T01:05:18.597Z,99.90
2019-05-15T01:07:47.983Z,99.90
2019-05-15T01:10:19.364Z,99.90
2019-05-15T01:12:49.278Z,99.90
2019-05-15T01:15:18.432Z,99.90
2019-05-15T01:17:49.054Z,99.90
2019-05-15T01:20:18.929Z,99.90
2019-05-15T01:22:48.498Z,99.90
2019-05-15T01:25:18.634Z,99.90
2019-05-15T01:27:48.982Z,99.90
2019-05-15T01:30:18.064Z,99.90
2019-05-15T01:32:48.514Z,99.90
2019-05-15T01:35:18.023Z,99.90
2019-05-15T01:37:48.354Z,99.90
2019-05-15T01:40:18.261Z,99.90
2019-05-15T01:42:46.923Z,99.90
2019-05-15T01:45:18.903Z,99.90
2019-05-15T01:47:48.017Z,99.90
2019-05-15T01:50:18.537Z,99.90
2019-05-15T01:52:47.958Z,99.90
2019-05-15T01:55:18.180Z,99.90
2019-05-15T01:57:48.660Z,99.90
2019-05-15T02:00:18.821Z,99.90
2019-05-15T02:02:48.115Z,99.90
2019-05-15T02:05:18.697Z,99.90
2019-05-15T02:07:47.888Z,99.90
2019-05-15T02:10:18.651Z,99.90
2019-05-15T02:12:48.135Z,99.90
2019-05-15T02:15:19.000Z,99.90
2019-05-15T02:17:48.117Z,99.90
2019-05-15T02:20:18.746Z,99.90
2019-05-15T02:22:48.511Z,99.90
2019-05-15T02:25:18.507Z,99.90
2019-05-15T02:27:48.051Z,99.90
2019-05-15T02:30:27.837Z,99.90
2019-05-15T02:32:50.032Z,99.90
2019-05-15T02:35:18.507Z,99.90
2019-05-15T02:37:48.875Z,99.90
2019-05-15T02:40:19.081Z,99.90
2019-05-15T02:42:49.353Z,99.90
2019-05-15T02:45:19.492Z,99.90
2019-05-15T02:47:48.779Z,99.90
2019-05-15T02:50:20.446Z,99.90
2019-05-15T02:52:49.751Z,99.90
2019-05-15T02:55:19.737Z,99.90
2019-05-15T02:57:49.454Z,99.90
2019-05-15T03:00:36.076Z,99.90
2019-05-15T03:02:49.835Z,99.90
2019-05-15T03:05:19.536Z,99.90
2019-05-15T03:07:49.291Z,99.90
2019-05-15T03:10:19.986Z,99.90
2019-05-15T03:12:49.518Z,99.90
2019-05-15T03:15:19.444Z,99.90
2019-05-15T03:17:49.461Z,99.90
2019-05-15T03:20:18.706Z,99.90
2019-05-15T03:22:49.265Z,99.90
2019-05-15T03:25:19.203Z,99.90
2019-05-15T03:27:49.959Z,99.90
2019-05-15T03:30:21.666Z,99.90
2019-05-15T03:33:00.672Z,99.90
2019-05-15T03:35:22.587Z,99.90
2019-05-15T03:37:49.460Z,99.90
2019-05-15T03:40:19.314Z,99.90
2019-05-15T03:42:49.582Z,99.90
2019-05-15T03:45:22.070Z,99.90
2019-05-15T03:47:50.684Z,99.90
2019-05-15T03:50:19.635Z,99.90
2019-05-15T03:52:49.652Z,99.90
2019-05-15T03:55:18.666Z,99.90
2019-05-15T03:57:49.925Z,99.90
2019-05-15T04:00:19.520Z,99.90
2019-05-15T04:02:48.872Z,99.90
2019-05-15T04:05:19.907Z,99.90
2019-05-15T04:07:49.643Z,99.90
2019-05-15T04:10:19.940Z,99.90
2019-05-15T04:12:49.376Z,99.90
2019-05-15T04:15:18.767Z,99.90
2019-05-15T04:17:49.293Z,99.90
2019-05-15T04:20:20.075Z,99.90
2019-05-15T04:22:49.145Z,99.90
2019-05-15T04:25:19.147Z,99.90
2019-05-15T04:27:49.380Z,99.90
2019-05-15T04:30:18.971Z,99.90
2019-05-15T04:32:48.793Z,99.90
2019-05-15T04:35:19.792Z,99.90
2019-05-15T04:37:49.386Z,99.90
2019-05-15T04:40:19.404Z,99.90
2019-05-15T04:42:49.764Z,99.90
2019-05-15T04:45:19.422Z,99.90
2019-05-15T04:47:49.869Z,99.90
2019-05-15T04:50:19.360Z,99.90
2019-05-15T04:52:50.144Z,99.90
2019-05-15T04:55:19.629Z,99.90
2019-05-15T04:57:50.173Z,99.90
2019-05-15T05:00:24.945Z,99.90
2019-05-15T05:02:53.560Z,99.90
2019-05-15T05:05:22.104Z,99.90
2019-05-15T05:07:50.748Z,99.90
2019-05-15T05:10:19.705Z,99.90
2019-05-15T05:12:50.858Z,99.90
2019-05-15T05:15:19.073Z,99.90
2019-05-15T05:17:49.002Z,99.90
2019-05-15T05:20:17.973Z,99.90
2019-05-15T05:22:48.324Z,99.90
2019-05-15T05:25:18.282Z,99.90
2019-05-15T05:27:48.669Z,99.90
2019-05-15T05:30:19.042Z,99.90
2019-05-15T05:32:48.713Z,99.90
2019-05-15T05:35:18.535Z,99.90
2019-05-15T05:37:48.074Z,99.90
2019-05-15T05:40:18.957Z,99.90
2019-05-15T05:42:47.978Z,99.90
2019-05-15T05:45:18.153Z,99.90
2019-05-15T05:47:48.679Z,99.90
2019-05-15T05:50:38.428Z,99.90
2019-05-15T05:53:08.725Z,99.90
2019-05-15T05:55:38.486Z,99.90
2019-05-15T05:58:08.164Z,99.90
2019-05-15T06:00:39.926Z,99.90
2019-05-15T06:03:08.952Z,99.90
2019-05-15T06:05:38.887Z,99.90
2019-05-15T06:08:08.418Z,99.90
2019-05-15T06:10:38.636Z,99.90
2019-05-15T06:13:08.686Z,99.90
2019-05-15T06:15:38.051Z,99.90
2019-05-15T06:18:08.310Z,99.90
2019-05-15T06:20:39.360Z,99.90
2019-05-15T06:23:08.477Z,99.90
2019-05-15T06:25:39.107Z,99.90
2019-05-15T06:28:09.116Z,99.90
2019-05-15T06:30:38.708Z,99.90
2019-05-15T06:33:12.875Z,99.90
2019-05-15T06:35:39.414Z,99.90
2019-05-15T06:38:08.666Z,99.90
2019-05-15T06:40:39.361Z,99.90
2019-05-15T06:43:08.756Z,99.90
2019-05-15T06:45:37.997Z,99.90
2019-05-15T06:48:09.283Z,99.90
2019-05-15T06:50:41.405Z,99.90
2019-05-15T06:53:10.774Z,99.90
2019-05-15T06:55:39.593Z,99.90
2019-05-15T06:58:09.267Z,99.90
2019-05-15T07:00:39.159Z,99.90
2019-05-15T07:03:18.117Z,99.90
2019-05-15T07:05:38.620Z,99.90
2019-05-15T07:08:09.116Z,99.90
2019-05-15T07:10:37.912Z,99.90
2019-05-15T07:13:08.727Z,99.90
2019-05-15T07:15:38.388Z,99.90
2019-05-15T07:18:08.700Z,99.90
2019-05-15T07:20:39.057Z,99.90
2019-05-15T07:23:08.831Z,99.90
2019-05-15T07:25:39.005Z,99.90
2019-05-15T07:28:08.772Z,99.90
2019-05-15T07:30:41.054Z,99.90
2019-05-15T07:33:08.760Z,99.90
2019-05-15T07:35:38.562Z,99.90
2019-05-15T07:38:07.965Z,99.90
2019-05-15T07:40:38.752Z,99.90
2019-05-15T07:43:09.315Z,99.90
2019-05-15T07:45:43.474Z,99.90
2019-05-15T07:48:09.170Z,99.90
2019-05-15T07:50:38.887Z,99.90
2019-05-15T07:53:08.820Z,99.90
2019-05-15T07:55:39.314Z,99.90
2019-05-15T07:58:08.499Z,99.90
2019-05-15T08:00:39.413Z,99.90
2019-05-15T08:03:10.303Z,99.90
2019-05-15T08:05:54.677Z,99.90
2019-05-15T08:08:08.977Z,99.90
2019-05-15T08:10:39.690Z,99.90
2019-05-15T08:13:08.913Z,99.90
2019-05-15T08:15:38.186Z,99.90
2019-05-15T08:18:09.905Z,99.90
2019-05-15T08:20:38.472Z,99.90
2019-05-15T08:23:08.483Z,99.90
2019-05-15T08:25:38.923Z,99.90
2019-05-15T08:28:08.778Z,99.90
2019-05-15T08:30:38.760Z,99.90
2019-05-15T08:33:08.363Z,99.90
2019-05-15T08:35:39.057Z,99.90
2019-05-15T08:38:08.785Z,99.90
2019-05-15T08:40:40.988Z,99.90
2019-05-15T08:43:11.384Z,99.90
2019-05-15T08:45:39.131Z,99.90
2019-05-15T08:48:09.366Z,99.90
2019-05-15T08:50:39.039Z,99.90
2019-05-15T08:53:08.336Z,99.90
2019-05-15T08:55:39.165Z,99.90
2019-05-15T08:58:13.231Z,99.90
2019-05-15T09:00:40.209Z,99.90
2019-05-15T09:03:08.722Z,99.90
2019-05-15T09:05:38.834Z,99.90
2019-05-15T09:08:09.272Z,99.90
2019-05-15T09:10:38.649Z,99.90
2019-05-15T09:13:09.653Z,99.90
2019-05-15T09:15:39.586Z,99.90
2019-05-15T09:18:14.957Z,99.90
2019-05-15T09:20:38.520Z,99.90
2019-05-15T09:23:08.982Z,99.90
2019-05-15T09:25:38.986Z,99.90
2019-05-15T09:28:08.654Z,99.90
2019-05-15T09:30:39.094Z,99.90
2019-05-15T09:33:08.666Z,99.90
2019-05-15T09:35:39.394Z,99.90
2019-05-15T09:38:08.633Z,99.90
2019-05-15T09:40:45.198Z,99.90
2019-05-15T09:43:10.821Z,99.90
2019-05-15T09:45:38.166Z,99.90
2019-05-15T09:48:09.734Z,99.90
2019-05-15T09:50:39.697Z,99.90
2019-05-15T09:53:09.302Z,99.90
2019-05-15T09:55:38.263Z,99.90
2019-05-15T09:58:08.339Z,99.90
2019-05-15T10:00:38.555Z,99.90
2019-05-15T10:03:09.574Z,99.90
2019-05-15T10:05:38.788Z,99.90
2019-05-15T10:08:08.931Z,99.90
2019-05-15T10:10:38.021Z,99.90
2019-05-15T10:13:08.935Z,99.90
2019-05-15T10:15:38.989Z,99.90
2019-05-15T10:18:09.884Z,99.90
2019-05-15T10:20:37.861Z,99.90
2019-05-15T10:23:08.726Z,99.90
2019-05-15T10:25:38.737Z,99.90
2019-05-15T10:28:09.727Z,99.90
2019-05-15T10:30:39.402Z,99.90
2019-05-15T10:33:08.646Z,99.90
2019-05-15T10:35:39.315Z,99.90
2019-05-15T10:38:08.794Z,99.90
2019-05-15T10:40:39.498Z,99.90
2019-05-15T10:43:09.156Z,99.90
2019-05-15T10:45:42.214Z,99.90
2019-05-15T10:48:09.406Z,99.90
2019-05-15T10:50:38.829Z,99.90
2019-05-15T10:53:10.959Z,99.90
2019-05-15T10:55:39.501Z,99.90
2019-05-15T10:58:16.564Z,99.90
2019-05-15T11:00:38.726Z,99.90
2019-05-15T11:03:08.848Z,99.90
2019-05-15T11:05:45.176Z,99.90
2019-05-15T11:08:08.315Z,99.90
2019-05-15T11:10:38.665Z,99.90
2019-05-15T11:13:09.024Z,99.90
2019-05-15T11:15:40.472Z,99.90
2019-05-15T11:18:09.308Z,99.90
2019-05-15T11:20:40.898Z,99.90
2019-05-15T11:23:10.083Z,99.90
2019-05-15T11:25:38.915Z,99.90
2019-05-15T11:28:08.254Z,99.90
2019-05-15T11:30:39.233Z,99.90
2019-05-15T11:33:09.637Z,99.90
2019-05-15T11:35:40.680Z,99.90
2019-05-15T11:38:09.985Z,99.90
2019-05-15T11:40:38.904Z,99.90
2019-05-15T11:43:08.735Z,99.90
2019-05-15T11:45:38.986Z,99.90
2019-05-15T11:48:09.004Z,99.90
2019-05-15T11:50:40.111Z,99.90
2019-05-15T11:53:08.895Z,99.90
2019-05-15T11:55:38.704Z,99.90
2019-05-15T11:58:09.261Z,99.90
2019-05-15T12:00:38.400Z,99.90
2019-05-15T12:03:08.995Z,99.90
2019-05-15T12:05:38.608Z,99.90
2019-05-15T12:08:09.051Z,99.90
2019-05-15T12:10:38.880Z,99.90
2019-05-15T12:13:09.798Z,99.90
2019-05-15T12:15:38.794Z,99.90
2019-05-15T12:18:08.858Z,99.90
2019-05-15T12:20:38.927Z,99.90
2019-05-15T12:23:09.122Z,99.90
2019-05-15T12:28:09.567Z,99.90
2019-05-15T12:30:40.322Z,99.90
2019-05-15T12:33:09.771Z,99.90
2019-05-15T12:35:39.710Z,99.90
2019-05-15T12:38:09.890Z,99.90
2019-05-15T13:00:41.795Z,99.90
2019-05-15T13:03:11.226Z,99.90
2019-05-15T13:05:39.844Z,99.90
2019-05-15T13:08:08.711Z,99.90
2019-05-15T13:10:38.478Z,99.90
2019-05-15T13:13:09.558Z,99.90
2019-05-15T13:15:41.134Z,99.90
2019-05-15T13:18:13.884Z,99.90
2019-05-15T13:20:38.823Z,99.90
2019-05-15T13:23:08.749Z,99.90
2019-05-15T13:25:39.501Z,99.90
2019-05-15T13:28:08.837Z,99.90
2019-05-15T13:30:41.376Z,99.90
2019-05-15T13:33:09.874Z,99.90
2019-05-15T13:35:38.630Z,99.90
2019-05-15T13:38:09.939Z,99.90
2019-05-15T13:40:41.162Z,99.90
2019-05-15T13:43:08.483Z,99.90
2019-05-15T13:45:38.627Z,99.90
2019-05-15T13:48:08.841Z,99.90
2019-05-15T13:50:40.547Z,99.90
2019-05-15T13:53:10.908Z,99.90
2019-05-15T13:55:42.513Z,99.90
2019-05-15T13:58:09.108Z,99.90
2019-05-15T14:00:39.050Z,99.90
2019-05-15T14:03:09.075Z,99.90
2019-05-15T14:05:38.415Z,99.90
2019-05-15T14:08:07.149Z,99.90
2019-05-15T14:10:38.297Z,99.90
2019-05-15T14:13:07.253Z,99.90
2019-05-15T14:15:37.985Z,99.90
2019-05-15T14:18:08.388Z,99.90
2019-05-15T14:20:38.679Z,99.90
2019-05-15T14:23:08.651Z,99.90
2019-05-15T14:25:38.894Z,99.90
2019-05-15T14:28:08.819Z,99.90
2019-05-15T14:30:37.798Z,99.90
2019-05-15T14:33:08.729Z,99.90
2019-05-15T14:35:37.955Z,99.90
2019-05-15T14:38:10.217Z,99.90
2019-05-15T14:40:38.070Z,99.90
2019-05-15T14:43:08.891Z,99.90
2019-05-15T14:45:38.883Z,99.90
2019-05-15T14:48:08.943Z,99.90
2019-05-15T14:50:38.434Z,99.90
2019-05-15T14:53:09.264Z,99.90
2019-05-15T14:55:43.235Z,99.90
2019-05-15T14:58:08.380Z,99.90
2019-05-15T15:00:40.786Z,99.90
2019-05-15T15:03:09.686Z,99.90
2019-05-15T15:05:38.882Z,99.90
2019-05-15T15:08:18.535Z,99.90
2019-05-15T15:10:38.391Z,99.90
2019-05-15T15:13:09.279Z,99.90
2019-05-15T15:15:38.090Z,99.90
2019-05-15T15:18:08.298Z,99.90
2019-05-15T15:20:38.044Z,99.90
2019-05-15T15:23:08.569Z,99.90
2019-05-15T15:25:39.588Z,99.90
2019-05-15T15:28:08.331Z,99.90
2019-05-15T15:30:38.492Z,99.90
2019-05-15T15:33:08.585Z,99.90
2019-05-15T15:35:38.335Z,99.90
2019-05-15T15:38:12.762Z,99.90
2019-05-15T15:40:38.846Z,99.90
2019-05-15T15:43:08.997Z,99.90
2019-05-15T15:45:39.082Z,99.90
2019-05-15T15:48:08.511Z,99.90
2019-05-15T15:50:38.431Z,99.90
2019-05-15T15:53:08.991Z,99.90
2019-05-15T15:55:38.655Z,99.90
2019-05-15T15:58:08.771Z,99.90
2019-05-15T16:00:38.364Z,99.90
2019-05-15T16:03:08.762Z,99.90
2019-05-15T16:05:38.464Z,99.90
2019-05-15T16:08:08.494Z,99.90
2019-05-15T16:10:38.020Z,99.90
2019-05-15T16:13:08.699Z,99.90
2019-05-15T16:15:38.490Z,99.90
2019-05-15T16:18:08.863Z,99.90
2019-05-15T16:20:39.598Z,99.90
2019-05-15T16:23:08.553Z,99.90
2019-05-15T16:25:38.415Z,99.90
2019-05-15T16:28:08.839Z,99.90
2019-05-15T16:30:50.404Z,99.90
2019-05-15T16:33:09.921Z,99.90
2019-05-15T16:35:38.728Z,99.90
2019-05-15T16:38:09.350Z,99.90
2019-05-15T16:40:38.438Z,99.90
2019-05-15T16:43:07.232Z,99.90
2019-05-15T16:45:38.397Z,99.90
2019-05-15T16:48:06.293Z,99.90
2019-05-15T16:50:38.134Z,99.90
2019-05-15T16:53:08.988Z,99.90
2019-05-15T16:55:37.866Z,99.90
2019-05-15T16:58:09.166Z,99.90
2019-05-15T17:00:38.505Z,99.90
2019-05-15T17:03:13.846Z,99.90
2019-05-15T17:05:38.750Z,99.90
2019-05-15T17:08:09.144Z,99.90
2019-05-15T17:10:38.772Z,99.90
2019-05-15T17:13:08.705Z,99.90
2019-05-15T17:15:38.484Z,99.90
2019-05-15T17:18:09.024Z,99.90
2019-05-15T17:20:38.065Z,99.90
2019-05-15T17:23:08.606Z,99.90
2019-05-15T17:25:38.278Z,99.90
2019-05-15T17:28:09.178Z,99.90
2019-05-15T17:30:38.583Z,99.90
2019-05-15T17:33:07.214Z,99.90
2019-05-15T17:35:37.929Z,99.90
2019-05-15T17:38:05.989Z,99.90
2019-05-15T17:40:34.983Z,99.90
2019-05-15T17:43:03.603Z,99.90
2019-05-15T17:45:32.624Z,99.90
2019-05-15T17:48:01.268Z,99.90
2019-05-15T17:50:44.744Z,99.90
2019-05-15T17:53:00.342Z,99.90
2019-05-15T17:55:29.043Z,99.90
2019-05-15T17:58:00.966Z,99.90
2019-05-15T18:00:28.601Z,99.90
2019-05-15T18:02:57.603Z,99.90
2019-05-15T18:05:28.251Z,99.90
2019-05-15T18:07:58.381Z,99.90
2019-05-15T18:10:27.982Z,99.90
2019-05-15T18:12:58.400Z,99.90
2019-05-15T18:15:27.152Z,99.90
2019-05-15T18:17:55.700Z,99.90
2019-05-15T18:20:29.698Z,99.90
2019-05-15T18:22:59.260Z,99.90
2019-05-15T18:25:28.121Z,99.90
2019-05-15T18:27:59.033Z,99.90
2019-05-15T18:30:28.269Z,99.90
2019-05-15T18:32:58.794Z,99.90
2019-05-15T18:35:29.565Z,99.90
2019-05-15T18:37:59.100Z,99.90
2019-05-15T18:40:27.939Z,99.90
2019-05-15T18:42:59.247Z,99.90
2019-05-15T18:45:28.979Z,99.90
2019-05-15T18:47:59.035Z,99.90
2019-05-15T18:50:28.434Z,99.90
2019-05-15T18:52:58.364Z,99.90
2019-05-15T18:55:27.333Z,99.90
2019-05-15T18:57:58.191Z,99.90
2019-05-15T19:00:29.235Z,99.90
2019-05-15T19:02:59.231Z,99.90
2019-05-15T19:05:28.148Z,99.90
2019-05-15T19:07:58.791Z,99.90
2019-05-15T19:10:28.209Z,99.90
2019-05-15T19:12:58.186Z,99.90
2019-05-15T19:15:28.677Z,99.90
2019-05-15T19:17:58.569Z,99.90
2019-05-15T19:20:28.036Z,99.90
2019-05-15T19:22:58.912Z,99.90
2019-05-15T19:25:28.601Z,99.90
2019-05-15T19:27:57.462Z,99.90
2019-05-15T19:30:28.462Z,99.90
2019-05-15T19:32:58.273Z,99.90
2019-05-15T19:35:28.101Z,99.90
2019-05-15T19:37:58.467Z,99.90
2019-05-15T19:40:28.354Z,99.90
2019-05-15T19:42:59.182Z,99.90
2019-05-15T19:45:28.779Z,99.90
2019-05-15T19:47:58.813Z,99.90
2019-05-15T19:50:28.681Z,99.90
2019-05-15T19:52:59.193Z,99.90
2019-05-15T19:55:28.010Z,99.90
2019-05-15T19:57:58.553Z,99.90
2019-05-15T20:00:28.526Z,99.90
2019-05-15T20:02:58.763Z,99.90
2019-05-15T20:05:28.950Z,99.90
2019-05-15T20:07:58.742Z,99.90
2019-05-15T20:10:29.350Z,99.90
2019-05-15T20:13:00.217Z,99.90
2019-05-15T20:15:30.063Z,99.90
2019-05-15T20:17:59.030Z,99.90
2019-05-15T20:20:28.653Z,99.90
2019-05-15T20:23:00.240Z,99.90
2019-05-15T20:25:30.470Z,99.90
2019-05-15T20:27:59.115Z,99.90
2019-05-15T20:30:30.075Z,99.90
2019-05-15T20:32:58.683Z,99.90
2019-05-15T20:35:28.371Z,99.90
2019-05-15T20:37:58.111Z,99.90
2019-05-15T20:40:26.921Z,99.90
2019-05-15T20:42:55.494Z,99.90
2019-05-15T20:45:24.194Z,99.90
2019-05-15T20:47:52.732Z,99.90
2019-05-15T20:50:21.390Z,99.90
2019-05-15T20:52:50.014Z,99.90
2019-05-15T20:55:19.311Z,99.90
2019-05-15T20:57:50.430Z,99.90
2019-05-15T21:00:19.154Z,99.90
2019-05-15T21:02:48.733Z,99.90
2019-05-15T21:05:18.694Z,99.90
2019-05-15T21:07:48.538Z,99.90
2019-05-15T21:10:21.409Z,99.90
2019-05-15T21:12:48.718Z,99.90
2019-05-15T21:15:21.395Z,99.90
2019-05-15T21:17:57.779Z,99.90
2019-05-15T21:20:19.918Z,99.90
2019-05-15T21:22:49.335Z,99.90
2019-05-15T21:25:19.695Z,99.90
2019-05-15T21:27:48.965Z,99.90
2019-05-15T21:30:19.171Z,99.90
2019-05-15T21:32:50.888Z,99.90
2019-05-15T21:35:19.374Z,99.90
2019-05-15T21:37:48.971Z,99.90
2019-05-15T21:40:17.914Z,99.90
2019-05-15T21:42:49.269Z,99.90
2019-05-15T21:45:18.321Z,99.90
2019-05-15T21:47:47.153Z,99.90
2019-05-15T21:50:19.023Z,99.90
2019-05-15T21:52:49.061Z,99.90
2019-05-15T21:55:18.603Z,99.90
2019-05-15T21:57:47.123Z,99.90
2019-05-15T22:00:21.437Z,99.90
2019-05-15T22:02:50.126Z,99.90
2019-05-15T22:05:19.228Z,99.90
2019-05-15T22:07:51.089Z,99.90
2019-05-15T22:10:19.396Z,99.90
2019-05-15T22:12:48.401Z,99.90
2019-05-15T22:15:19.298Z,99.90
2019-05-15T22:17:49.378Z,99.90
2019-05-15T22:20:18.833Z,99.90
2019-05-15T22:22:50.455Z,99.90
2019-05-15T22:25:18.957Z,99.90
2019-05-15T22:27:48.678Z,99.90
2019-05-15T22:30:19.761Z,99.90
2019-05-15T22:32:49.829Z,99.90
2019-05-15T22:35:18.978Z,99.90
2019-05-15T22:37:49.372Z,99.90
2019-05-15T22:40:18.569Z,99.90
2019-05-15T22:42:48.741Z,99.90
2019-05-15T22:45:18.374Z,99.90
2019-05-15T22:47:48.354Z,99.90
2019-05-15T22:50:19.040Z,99.90
2019-05-15T22:52:49.388Z,99.90
2019-05-15T22:55:18.447Z,99.90
2019-05-15T22:57:48.157Z,99.90
2019-05-15T23:00:18.546Z,99.90
2019-05-15T23:02:48.817Z,99.90
2019-05-15T23:05:27.752Z,99.90
2019-05-15T23:07:48.475Z,99.90
2019-05-15T23:10:17.418Z,99.90
2019-05-15T23:12:48.527Z,99.90
2019-05-15T23:15:18.715Z,99.90
2019-05-15T23:17:48.591Z,99.90
2019-05-15T23:20:17.736Z,99.90
2019-05-15T23:22:46.388Z,99.90
2019-05-15T23:25:15.070Z,99.90
2019-05-15T23:27:43.645Z,99.90
2019-05-15T23:30:13.234Z,99.90
2019-05-15T23:32:41.847Z,99.90
2019-05-15T23:35:10.742Z,99.90
2019-05-15T23:37:39.466Z,99.90
2019-05-15T23:40:08.983Z,99.90
2019-05-15T23:42:38.951Z,99.90
2019-05-15T23:45:08.187Z,99.90
2019-05-15T23:47:38.364Z,99.90
2019-05-15T23:50:07.481Z,99.90
2019-05-15T23:52:38.582Z,99.90
2019-05-15T23:55:08.807Z,99.90
2019-05-15T23:57:39.195Z,99.90
